Time;durP1;ratioP1;P1;durP2;ratioP2;P2;SDS_P1;SDS_P2;PMS_P1;PMS_P2;Temp;Humidity;BMP_temperature;BMP_pressure;BME280_temperature;BME280_humidity;BME280_pressure;Samples;Min_cycle;Max_cycle;Signal;HPM_P1;HPM_P2
2022/06/12 00:00:46;;;;;;;10.35;5.07;;;12.60;99.90;;;;;;5047725;28;20037;-26
2022/06/12 00:03:15;;;;;;;13.13;5.20;;;12.60;99.90;;;;;;5048685;28;20087;-26
2022/06/12 00:05:44;;;;;;;10.90;5.13;;;12.50;99.90;;;;;;5054512;28;20037;-26
2022/06/12 00:08:10;;;;;;;11.07;5.93;;;12.50;99.90;;;;;;5052230;28;20112;-26
2022/06/12 00:10:38;;;;;;;10.05;5.45;;;12.50;99.90;;;;;;5054194;28;20101;-26
2022/06/12 00:13:06;;;;;;;11.15;5.85;;;12.50;99.90;;;;;;5053736;28;20037;-26
2022/06/12 00:15:32;;;;;;;11.90;5.30;;;12.50;99.90;;;;;;5048260;28;20037;-26
2022/06/12 00:17:58;;;;;;;10.95;5.97;;;12.50;99.90;;;;;;5039639;28;20033;-26
2022/06/12 00:20:24;;;;;;;12.40;6.15;;;12.50;99.90;;;;;;5053628;28;20033;-26
2022/06/12 00:22:52;;;;;;;10.02;5.63;;;12.40;99.90;;;;;;5053404;28;20045;-26
2022/06/12 00:25:20;;;;;;;12.73;6.07;;;12.40;99.90;;;;;;5047389;28;20048;-26
2022/06/12 00:27:47;;;;;;;12.45;6.38;;;12.30;99.90;;;;;;5050635;28;20156;-26
2022/06/12 00:30:15;;;;;;;11.27;6.60;;;12.30;99.90;;;;;;5053153;28;20118;-26
2022/06/12 00:32:44;;;;;;;15.05;6.55;;;12.30;99.90;;;;;;5040702;28;20058;-26
2022/06/12 00:35:10;;;;;;;13.75;6.75;;;12.30;99.90;;;;;;5053415;28;20029;-26
2022/06/12 00:37:37;;;;;;;12.18;6.55;;;12.30;99.90;;;;;;5045266;28;20036;-26
2022/06/12 00:40:05;;;;;;;13.50;5.95;;;12.40;99.90;;;;;;5053543;28;20037;-26
2022/06/12 00:42:44;;;;;;;11.82;5.82;;;12.40;99.90;;;;;;5052415;28;20399;-26
2022/06/12 00:45:32;;;;;;;7.93;5.78;;;12.40;99.90;;;;;;5039488;28;20128;-26
2022/06/12 00:48:06;;;;;;;12.50;6.20;;;12.40;99.90;;;;;;5049165;28;20041;-26
2022/06/12 00:50:34;;;;;;;12.90;6.57;;;12.30;99.90;;;;;;5052758;28;20051;-26
2022/06/12 00:53:00;;;;;;;12.98;7.32;;;12.30;99.90;;;;;;5052995;28;20044;-26
2022/06/12 00:55:44;;;;;;;12.52;6.47;;;12.30;99.90;;;;;;5035439;28;20124;-26
2022/06/12 00:58:22;;;;;;;13.35;7.72;;;12.20;99.90;;;;;;5050059;28;20084;-26
2022/06/12 01:00:49;;;;;;;13.70;7.22;;;12.20;99.90;;;;;;5023236;28;20041;-26
2022/06/12 01:03:16;;;;;;;12.38;7.82;;;12.20;99.90;;;;;;5042512;28;20041;-26
2022/06/12 01:08:29;;;;;;;11.07;7.03;;;12.10;99.90;;;;;;5051950;28;20099;-26
2022/06/12 01:10:58;;;;;;;15.07;7.38;;;12.10;99.90;;;;;;5031500;28;20048;-27
2022/06/12 01:13:29;;;;;;;12.00;7.32;;;12.10;99.90;;;;;;5051738;28;20070;-27
2022/06/12 01:16:00;;;;;;;13.70;7.15;;;12.00;99.90;;;;;;5045768;28;20041;-27
2022/06/12 01:18:30;;;;;;;11.07;6.68;;;12.00;99.90;;;;;;5038997;28;20498;-27
2022/06/12 01:21:04;;;;;;;16.13;7.75;;;12.00;99.90;;;;;;5052734;28;20033;-27
2022/06/12 01:24:04;;;;;;;15.40;7.32;;;12.00;99.90;;;;;;5039798;28;20044;-27
2022/06/12 01:26:51;;;;;;;13.20;7.07;;;11.90;99.90;;;;;;5048926;28;20036;-27
2022/06/12 01:29:34;;;;;;;14.75;7.25;;;11.90;99.90;;;;;;5017004;28;20056;-27
2022/06/12 01:32:07;;;;;;;11.02;7.30;;;11.90;99.90;;;;;;5052392;28;20120;-27
2022/06/12 01:34:35;;;;;;;12.80;7.18;;;11.90;99.90;;;;;;5044937;28;20080;-27
2022/06/12 01:37:13;;;;;;;7.93;5.90;;;11.90;99.90;;;;;;5028572;28;20092;-27
2022/06/12 01:39:47;;;;;;;12.63;7.85;;;11.80;99.90;;;;;;5044640;28;20029;-27
2022/06/12 01:42:19;;;;;;;10.05;6.50;;;11.80;99.90;;;;;;5048262;28;20435;-26
2022/06/12 01:45:01;;;;;;;9.30;6.05;;;11.80;99.90;;;;;;5041218;28;20159;-27
2022/06/12 01:47:53;;;;;;;12.70;6.45;;;11.80;99.90;;;;;;5051317;28;20115;-27
2022/06/12 01:50:56;;;;;;;9.30;6.00;;;11.80;99.90;;;;;;5051785;28;20045;-27
2022/06/12 01:53:46;;;;;;;13.70;6.13;;;11.80;99.90;;;;;;5046530;28;20507;-27
2022/06/12 01:56:39;;;;;;;10.30;6.45;;;11.70;99.90;;;;;;5041441;28;20129;-27
2022/06/12 01:59:15;;;;;;;11.90;7.03;;;11.70;99.90;;;;;;5051455;28;20392;-26
2022/06/12 02:01:56;;;;;;;11.05;6.10;;;11.70;99.90;;;;;;5036388;28;20032;-26
2022/06/12 02:04:39;;;;;;;12.98;6.30;;;11.80;99.90;;;;;;5033952;28;20029;-26
2022/06/12 02:07:29;;;;;;;9.80;5.95;;;11.80;99.90;;;;;;5051328;28;20045;-26
2022/06/12 02:10:17;;;;;;;11.48;5.97;;;11.80;99.90;;;;;;5045673;28;20079;-26
2022/06/12 02:15:48;;;;;;;10.40;5.78;;;11.80;99.90;;;;;;5044939;28;20131;-26
2022/06/12 02:18:31;;;;;;;11.63;6.18;;;11.80;99.90;;;;;;5042197;28;20492;-26
2022/06/12 02:21:11;;;;;;;16.48;6.13;;;11.90;99.90;;;;;;5042697;28;20044;-26
2022/06/12 02:24:01;;;;;;;9.52;5.72;;;11.80;99.90;;;;;;5046635;28;20504;-26
2022/06/12 02:26:34;;;;;;;11.55;5.68;;;11.80;99.90;;;;;;5027105;28;20463;-26
2022/06/12 02:29:09;;;;;;;9.23;5.57;;;11.80;99.90;;;;;;5051063;28;20052;-26
2022/06/12 02:31:40;;;;;;;11.90;5.90;;;11.90;99.90;;;;;;5043315;28;20159;-26
2022/06/12 02:34:14;;;;;;;10.38;5.82;;;11.80;99.90;;;;;;5041355;28;20040;-26
2022/06/12 02:36:46;;;;;;;13.93;5.82;;;11.80;99.90;;;;;;5045175;28;20526;-26
2022/06/12 02:39:23;;;;;;;8.45;4.95;;;11.80;99.90;;;;;;5051111;28;20037;-25
2022/06/12 02:41:58;;;;;;;9.30;5.72;;;11.70;99.90;;;;;;5041990;28;20416;-26
2022/06/12 02:44:33;;;;;;;9.00;5.15;;;11.70;99.90;;;;;;5043695;28;20130;-26
2022/06/12 02:47:08;;;;;;;9.73;5.53;;;11.70;99.90;;;;;;5037146;28;20116;-26
2022/06/12 02:49:37;;;;;;;7.18;5.10;;;11.60;99.90;;;;;;5050549;28;20041;-26
2022/06/12 02:52:19;;;;;;;7.68;4.72;;;11.70;99.90;;;;;;5050624;28;20051;-26
2022/06/12 02:55:10;;;;;;;8.65;4.72;;;11.70;99.90;;;;;;5042285;28;20040;-26
2022/06/12 02:57:52;;;;;;;7.13;5.13;;;11.60;99.90;;;;;;5050624;28;20076;-26
2022/06/12 03:00:32;;;;;;;11.77;5.45;;;11.50;99.90;;;;;;5050414;28;20438;-26
2022/06/12 03:03:10;;;;;;;6.22;4.28;;;11.60;99.90;;;;;;5037935;28;20041;-26
2022/06/12 03:05:39;;;;;;;9.75;4.75;;;11.60;99.90;;;;;;5050569;28;20389;-26
2022/06/12 03:08:16;;;;;;;8.15;4.60;;;11.60;99.90;;;;;;5048878;28;20424;-26
2022/06/12 03:10:56;;;;;;;9.23;4.63;;;11.60;99.90;;;;;;5044549;28;20040;-27
2022/06/12 03:13:25;;;;;;;6.85;4.30;;;11.70;99.90;;;;;;5046319;28;20515;-27
2022/06/12 03:15:57;;;;;;;9.68;4.53;;;11.60;99.90;;;;;;5039322;28;20041;-27
2022/06/12 03:18:31;;;;;;;9.43;3.92;;;11.60;99.90;;;;;;5049765;28;20485;-27
2022/06/12 03:21:08;;;;;;;8.00;4.00;;;11.70;99.90;;;;;;5048938;28;20037;-27
2022/06/12 03:24:04;;;;;;;9.13;4.60;;;11.60;99.90;;;;;;5042997;28;20392;-27
2022/06/12 03:26:30;;;;;;;11.23;4.70;;;11.70;99.90;;;;;;5045394;28;20096;-27
2022/06/12 03:29:15;;;;;;;9.93;4.65;;;11.70;99.90;;;;;;5020642;28;20049;-27
2022/06/12 03:31:59;;;;;;;8.23;4.05;;;11.70;99.90;;;;;;5044031;28;20073;-27
2022/06/12 03:34:50;;;;;;;7.13;4.53;;;11.80;99.90;;;;;;5040671;28;20064;-27
2022/06/12 03:37:42;;;;;;;6.88;3.58;;;11.80;99.90;;;;;;5041261;28;20079;-27
2022/06/12 03:40:41;;;;;;;6.93;3.85;;;11.80;99.90;;;;;;5044390;28;20112;-27
2022/06/12 03:43:17;;;;;;;6.68;3.78;;;11.80;99.90;;;;;;5046378;28;20049;-27
2022/06/12 03:45:52;;;;;;;7.78;3.70;;;11.80;99.90;;;;;;5040720;28;20481;-27
2022/06/12 03:48:26;;;;;;;9.70;4.03;;;11.80;99.90;;;;;;5039482;28;20037;-26
2022/06/12 03:51:10;;;;;;;6.05;4.10;;;11.80;99.90;;;;;;5044734;28;20477;-28
2022/06/12 03:53:35;;;;;;;8.85;4.22;;;11.90;99.90;;;;;;5042419;28;20041;-28
2022/06/12 03:59:20;;;;;;;7.30;3.33;;;11.90;99.90;;;;;;5035057;28;20124;-27
2022/06/12 04:01:48;;;;;;;12.68;3.83;;;11.90;99.90;;;;;;5034620;28;20038;-27
2022/06/12 04:04:16;;;;;;;6.78;3.22;;;12.00;99.90;;;;;;5034055;28;20033;-27
2022/06/12 04:06:44;;;;;;;5.57;2.75;;;12.00;99.90;;;;;;5034400;28;20045;-27
2022/06/12 04:09:21;;;;;;;9.35;3.78;;;12.00;99.90;;;;;;5034356;28;20096;-27
2022/06/12 04:11:54;;;;;;;7.38;3.75;;;12.00;99.90;;;;;;5034359;28;20048;-27
2022/06/12 04:14:23;;;;;;;8.03;3.67;;;12.10;99.90;;;;;;5034031;28;20051;-26
2022/06/12 04:16:54;;;;;;;5.88;3.47;;;12.10;99.90;;;;;;5033814;28;20041;-27
2022/06/12 04:19:23;;;;;;;7.18;3.08;;;12.20;99.90;;;;;;5016237;28;20038;-28
2022/06/12 04:21:59;;;;;;;5.00;3.45;;;12.20;99.90;;;;;;5034103;28;20517;-27
2022/06/12 04:24:43;;;;;;;8.43;3.40;;;12.20;99.90;;;;;;5016004;28;20046;-27
2022/06/12 04:27:24;;;;;;;7.15;3.30;;;12.30;99.90;;;;;;5016269;28;20049;-27
2022/06/12 04:30:04;;;;;;;6.28;3.25;;;12.30;99.90;;;;;;5033980;28;20052;-27
2022/06/12 04:32:30;;;;;;;8.02;3.20;;;12.30;99.90;;;;;;5033884;28;20045;-27
2022/06/12 04:34:57;;;;;;;8.52;3.22;;;12.40;99.90;;;;;;5033450;28;20048;-28
2022/06/12 04:37:30;;;;;;;7.68;3.13;;;12.50;99.90;;;;;;5034122;28;20045;-27
2022/06/12 04:39:57;;;;;;;7.50;3.72;;;12.50;99.90;;;;;;5028813;28;20073;-27
2022/06/12 04:42:25;;;;;;;8.27;3.42;;;12.50;99.90;;;;;;5035640;28;20043;-27
2022/06/12 04:44:52;;;;;;;6.60;3.63;;;12.60;99.90;;;;;;5037409;28;20090;-27
2022/06/12 04:47:24;;;;;;;8.05;3.20;;;12.60;99.90;;;;;;5038744;28;20034;-27
2022/06/12 04:49:52;;;;;;;7.18;3.60;;;12.70;99.90;;;;;;5048893;28;20041;-27
2022/06/12 04:52:21;;;;;;;7.68;3.08;;;12.70;99.90;;;;;;5041868;28;20033;-27
2022/06/12 04:54:47;;;;;;;8.60;3.42;;;12.80;99.90;;;;;;5052422;28;20076;-27
2022/06/12 04:57:16;;;;;;;8.65;3.17;;;12.80;99.90;;;;;;5048871;28;20082;-27
2022/06/12 04:59:44;;;;;;;7.55;3.40;;;12.90;99.90;;;;;;5036930;28;20037;-27
2022/06/12 05:02:10;;;;;;;7.40;3.67;;;13.00;99.90;;;;;;5047805;28;20047;-27
2022/06/12 05:04:36;;;;;;;8.57;3.55;;;13.00;99.90;;;;;;5046173;28;20065;-27
2022/06/12 05:07:04;;;;;;;7.75;3.83;;;13.10;99.90;;;;;;5033839;28;20052;-27
2022/06/12 05:09:33;;;;;;;8.32;4.22;;;13.20;99.90;;;;;;5031580;28;20052;-27
2022/06/12 05:12:00;;;;;;;8.63;3.50;;;13.20;99.90;;;;;;5044710;28;20068;-27
2022/06/12 05:14:26;;;;;;;9.57;3.53;;;13.30;99.90;;;;;;5043063;28;20029;-27
2022/06/12 05:17:03;;;;;;;9.05;4.03;;;13.40;99.90;;;;;;5032770;28;20168;-27
2022/06/12 05:19:33;;;;;;;7.03;3.92;;;13.50;99.90;;;;;;5050834;28;20037;-27
2022/06/12 05:22:00;;;;;;;8.90;3.80;;;13.50;99.90;;;;;;5045440;28;20066;-27
2022/06/12 05:24:26;;;;;;;9.77;4.03;;;13.60;99.90;;;;;;5049921;28;20099;-27
2022/06/12 05:26:53;;;;;;;9.32;3.92;;;13.70;99.90;;;;;;5029279;28;20363;-27
2022/06/12 05:29:26;;;;;;;9.38;3.90;;;13.80;99.90;;;;;;5045032;28;20041;-27
2022/06/12 05:31:52;;;;;;;13.05;4.47;;;13.90;99.90;;;;;;5042702;28;20033;-27
2022/06/12 05:34:18;;;;;;;10.82;3.88;;;14.00;99.90;;;;;;5039213;28;20038;-27
2022/06/12 05:36:45;;;;;;;11.32;4.18;;;14.20;99.90;;;;;;5031652;28;20041;-27
2022/06/12 05:39:11;;;;;;;13.30;4.65;;;14.20;99.90;;;;;;5041698;28;20049;-27
2022/06/12 05:41:37;;;;;;;12.35;4.30;;;14.40;99.90;;;;;;5047453;28;20442;-27
2022/06/12 05:44:02;;;;;;;11.65;4.35;;;14.50;99.90;;;;;;5038902;28;20041;-27
2022/06/12 05:46:28;;;;;;;11.60;4.68;;;14.60;99.90;;;;;;5049402;28;20123;-27
2022/06/12 05:48:54;;;;;;;10.30;4.68;;;14.70;99.90;;;;;;5048240;28;20120;-26
2022/06/12 05:51:20;;;;;;;12.27;4.55;;;14.80;99.90;;;;;;5045806;28;20437;-27
2022/06/12 05:53:46;;;;;;;8.95;4.38;;;14.80;99.90;;;;;;5047561;28;20259;-27
2022/06/12 05:56:15;;;;;;;13.63;5.05;;;15.00;99.90;;;;;;5037085;28;20041;-26
2022/06/12 05:58:42;;;;;;;11.88;4.78;;;15.00;99.90;;;;;;5030152;28;20064;-26
2022/06/12 06:01:10;;;;;;;10.73;4.90;;;15.20;99.90;;;;;;5045558;28;20037;-27
2022/06/12 06:03:37;;;;;;;11.63;5.28;;;15.30;99.90;;;;;;5044081;28;20498;-26
2022/06/12 06:06:05;;;;;;;11.63;4.82;;;15.30;99.90;;;;;;5042011;28;20041;-26
2022/06/12 06:08:31;;;;;;;14.40;4.97;;;15.50;99.90;;;;;;5026467;28;20072;-26
2022/06/12 06:10:57;;;;;;;11.80;5.03;;;15.50;99.90;;;;;;5045729;28;20080;-26
2022/06/12 06:13:23;;;;;;;11.02;4.22;;;15.60;99.90;;;;;;5045209;28;20511;-26
2022/06/12 06:15:50;;;;;;;13.38;4.72;;;15.80;99.90;;;;;;5043906;28;20036;-27
2022/06/12 06:18:18;;;;;;;15.20;5.22;;;15.90;99.90;;;;;;5048130;28;20037;-27
2022/06/12 06:20:44;;;;;;;15.80;4.88;;;16.10;99.90;;;;;;5050354;28;20071;-27
2022/06/12 06:23:11;;;;;;;13.50;5.18;;;16.20;99.90;;;;;;5047718;28;20033;-27
2022/06/12 06:25:42;;;;;;;10.75;4.47;;;16.30;99.90;;;;;;5048252;28;20041;-28
2022/06/12 06:28:18;;;;;;;17.58;5.68;;;16.50;99.90;;;;;;5005932;28;20072;-28
2022/06/12 06:30:45;;;;;;;13.70;5.40;;;16.60;99.90;;;;;;5043415;28;20446;-26
2022/06/12 06:33:11;;;;;;;14.27;5.18;;;16.70;99.90;;;;;;5050965;28;20518;-25
2022/06/12 06:35:38;;;;;;;14.95;5.65;;;16.90;99.90;;;;;;5040234;28;20037;-26
2022/06/12 06:38:04;;;;;;;14.07;5.13;;;17.10;99.90;;;;;;5044426;28;20047;-26
2022/06/12 06:40:32;;;;;;;12.85;4.85;;;17.20;99.90;;;;;;5031113;28;20067;-26
2022/06/12 06:42:58;;;;;;;19.58;5.10;;;17.40;99.90;;;;;;5045090;28;20052;-27
2022/06/12 06:48:10;;;;;;;14.45;5.22;;;17.40;99.90;;;;;;5038867;28;20120;-27
2022/06/12 06:50:37;;;;;;;12.13;5.15;;;17.50;99.90;;;;;;5027833;28;20528;-27
2022/06/12 06:53:04;;;;;;;15.23;5.32;;;17.50;99.90;;;;;;5041467;28;20029;-27
2022/06/12 06:55:31;;;;;;;15.15;4.93;;;17.60;99.90;;;;;;5041698;28;20068;-27
2022/06/12 06:57:57;;;;;;;17.05;5.60;;;17.60;99.90;;;;;;5043394;28;20040;-27
2022/06/12 07:00:29;;;;;;;15.40;5.05;;;17.60;99.90;;;;;;5044048;28;20095;-27
2022/06/12 07:02:55;;;;;;;17.95;5.30;;;17.70;99.90;;;;;;5025532;28;20497;-27
2022/06/12 07:05:21;;;;;;;16.88;5.82;;;17.60;99.90;;;;;;5050583;28;20044;-27
2022/06/12 07:07:48;;;;;;;17.73;6.40;;;17.60;99.90;;;;;;5050233;28;20102;-27
2022/06/12 07:10:18;;;;;;;21.00;6.43;;;17.70;99.90;;;;;;5044942;28;20583;-27
2022/06/12 07:12:44;;;;;;;14.68;5.88;;;17.90;99.90;;;;;;5045340;28;20397;-27
2022/06/12 07:15:11;;;;;;;19.73;5.68;;;18.00;99.90;;;;;;5044356;28;20520;-27
2022/06/12 07:17:38;;;;;;;13.30;5.45;;;18.10;99.90;;;;;;5040195;28;20048;-27
2022/06/12 07:20:04;;;;;;;15.68;5.68;;;18.20;99.90;;;;;;5035971;28;20056;-27
2022/06/12 07:22:30;;;;;;;17.83;6.05;;;18.30;99.90;;;;;;5046288;28;20036;-28
2022/06/12 07:24:55;;;;;;;13.82;5.72;;;18.40;99.90;;;;;;5050553;28;20492;-27
2022/06/12 07:27:21;;;;;;;17.08;6.18;;;18.60;99.90;;;;;;5043328;28;20037;-27
2022/06/12 07:29:47;;;;;;;13.32;6.00;;;18.60;99.90;;;;;;5054305;28;20032;-27
2022/06/12 07:32:13;;;;;;;15.55;5.80;;;18.80;99.90;;;;;;5047969;28;20225;-27
2022/06/12 07:34:38;;;;;;;13.82;6.15;;;18.90;99.90;;;;;;5053487;28;20036;-27
2022/06/12 07:37:06;;;;;;;16.27;5.45;;;19.10;99.90;;;;;;5037290;28;20053;-27
2022/06/12 07:39:33;;;;;;;16.60;6.25;;;19.00;99.90;;;;;;5029159;28;20048;-27
2022/06/12 07:41:59;;;;;;;15.85;5.35;;;19.10;99.90;;;;;;5053119;28;20045;-27
2022/06/12 07:44:30;;;;;;;16.45;6.25;;;19.20;99.90;;;;;;5054171;28;20098;-27
2022/06/12 07:46:58;;;;;;;12.40;5.60;;;19.30;99.90;;;;;;5053405;28;20033;-27
2022/06/12 07:49:25;;;;;;;12.20;5.40;;;19.30;99.90;;;;;;5054598;28;20098;-27
2022/06/12 07:51:53;;;;;;;15.95;5.68;;;19.50;99.90;;;;;;5048705;28;20051;-27
2022/06/12 07:54:19;;;;;;;14.48;5.43;;;19.70;99.90;;;;;;5044627;28;20048;-27
2022/06/12 07:56:46;;;;;;;13.27;5.63;;;19.90;99.90;;;;;;5044135;28;20416;-27
2022/06/12 07:59:12;;;;;;;14.60;5.43;;;19.90;99.90;;;;;;5053093;28;20117;-27
2022/06/12 08:01:38;;;;;;;16.15;5.60;;;20.10;99.90;;;;;;5054786;28;20064;-27
2022/06/12 08:04:06;;;;;;;13.32;4.95;;;20.30;99.90;;;;;;5048441;28;20041;-27
2022/06/12 08:06:31;;;;;;;14.98;5.30;;;20.50;99.90;;;;;;5048838;28;20048;-27
2022/06/12 08:08:58;;;;;;;14.88;5.15;;;20.50;99.90;;;;;;5050767;28;20041;-27
2022/06/12 08:11:25;;;;;;;16.77;5.30;;;20.70;99.90;;;;;;5054636;28;20033;-27
2022/06/12 08:13:52;;;;;;;13.32;5.25;;;20.80;99.90;;;;;;5054446;28;20499;-27
2022/06/12 08:16:18;;;;;;;13.57;5.10;;;21.10;99.90;;;;;;5054117;28;20516;-28
2022/06/12 08:18:43;;;;;;;14.45;4.97;;;21.20;99.90;;;;;;5052252;28;20064;-27
2022/06/12 08:21:12;;;;;;;15.68;5.57;;;21.30;99.90;;;;;;5054472;28;20041;-27
2022/06/12 08:23:45;;;;;;;16.13;5.13;;;21.50;99.90;;;;;;5052913;28;20068;-27
2022/06/12 08:26:11;;;;;;;;;;;21.60;99.90;;;;;;5054466;28;20131;-27
2022/06/12 08:28:45;;;;;;;14.70;5.20;;;21.50;99.90;;;;;;5047518;28;20024;-27
2022/06/12 08:31:16;;;;;;;10.77;4.50;;;21.60;99.90;;;;;;5043958;28;20044;-27
2022/06/12 08:33:44;;;;;;;10.15;4.30;;;21.80;99.90;;;;;;5046711;28;20045;-27
2022/06/12 08:36:12;;;;;;;12.75;4.60;;;22.00;99.90;;;;;;5036770;28;20401;-27
2022/06/12 08:38:39;;;;;;;13.70;4.45;;;22.10;99.90;;;;;;5041408;28;20033;-26
2022/06/12 08:41:14;;;;;;;11.93;5.18;;;22.30;99.90;;;;;;5045204;28;20499;-27
2022/06/12 08:43:53;;;;;;;14.43;4.82;;;22.30;99.90;;;;;;5045020;28;20042;-27
2022/06/12 08:46:30;;;;;;;14.27;4.63;;;22.40;99.90;;;;;;5045409;28;20556;-26
2022/06/12 08:48:59;;;;;;;11.25;4.38;;;22.50;99.90;;;;;;5049186;28;20042;-27
2022/06/12 08:51:42;;;;;;;12.80;3.97;;;22.40;99.90;;;;;;5033544;28;20392;-26
2022/06/12 08:54:25;;;;;;;13.35;4.97;;;22.40;99.90;;;;;;5052116;28;20163;-26
2022/06/12 08:57:17;;;;;;;13.23;4.40;;;22.40;99.90;;;;;;5044987;28;20159;-26
2022/06/12 09:00:09;;;;;;;11.15;4.85;;;22.50;99.90;;;;;;5046012;28;20322;-26
2022/06/12 09:02:38;;;;;;;11.82;4.90;;;22.60;99.90;;;;;;5037757;28;20048;-26
2022/06/12 09:05:07;;;;;;;12.60;4.55;;;22.60;99.90;;;;;;5052863;28;20041;-26
2022/06/12 09:08:08;;;;;;;13.45;4.60;;;22.70;99.90;;;;;;5049541;28;20036;-26
2022/06/12 09:10:48;;;;;;;13.82;4.68;;;22.70;95.30;;;;;;5037988;28;20084;-27
2022/06/12 09:13:33;;;;;;;11.38;4.68;;;23.00;99.50;;;;;;5042391;28;20037;-26
2022/06/12 09:16:22;;;;;;;11.15;4.60;;;23.30;95.20;;;;;;5045144;28;20100;-26
2022/06/12 09:19:01;;;;;;;11.63;4.63;;;23.70;91.10;;;;;;5042530;28;20120;-26
2022/06/12 09:22:09;;;;;;;11.02;4.25;;;23.90;92.80;;;;;;5031034;28;20037;-26
2022/06/12 09:24:51;;;;;;;11.98;3.50;;;23.90;91.80;;;;;;5046017;28;20041;-26
2022/06/12 09:27:25;;;;;;;9.45;3.40;;;24.10;95.30;;;;;;5036709;28;20037;-27
2022/06/12 09:30:06;;;;;;;9.00;3.72;;;24.30;91.80;;;;;;5043833;28;20041;-27
2022/06/12 09:33:03;;;;;;;8.05;3.63;;;24.50;85.50;;;;;;5048742;28;20041;-27
2022/06/12 09:36:03;;;;;;;9.43;3.53;;;24.50;79.40;;;;;;5022327;28;20072;-27
2022/06/12 09:39:06;;;;;;;8.95;3.38;;;24.80;78.30;;;;;;5038472;28;20037;-27
2022/06/12 09:42:08;;;;;;;7.63;3.45;;;25.10;71.40;;;;;;5044471;28;20489;-27
2022/06/12 09:44:37;;;;;;;9.88;3.72;;;25.00;70.00;;;;;;5026425;28;20408;-27
2022/06/12 09:47:32;;;;;;;8.48;3.35;;;24.50;81.60;;;;;;5052550;28;20029;-27
2022/06/12 09:50:10;;;;;;;8.63;3.30;;;24.20;83.80;;;;;;5029477;28;20136;-29
2022/06/12 09:52:53;;;;;;;7.97;2.72;;;24.20;80.80;;;;;;5047825;28;20043;-28
2022/06/12 09:55:22;;;;;;;6.57;2.88;;;24.50;81.90;;;;;;5052558;28;20033;-28
2022/06/12 09:58:17;;;;;;;6.63;2.80;;;24.40;68.40;;;;;;5052128;28;20036;-28
2022/06/12 10:01:09;;;;;;;10.07;3.08;;;24.10;68.30;;;;;;5034606;28;20053;-28
2022/06/12 10:03:41;;;;;;;7.45;2.55;;;23.90;67.80;;;;;;5041232;28;20045;-28
2022/06/12 10:06:24;;;;;;;4.88;2.67;;;24.00;70.60;;;;;;5037890;28;20045;-28
2022/06/12 10:09:08;;;;;;;8.75;2.67;;;24.20;72.70;;;;;;5034001;28;20107;-28
2022/06/12 10:11:44;;;;;;;7.60;2.85;;;24.20;71.30;;;;;;5050347;28;20129;-27
2022/06/12 10:14:39;;;;;;;6.68;2.42;;;24.50;70.70;;;;;;5049692;28;20047;-28
2022/06/12 10:17:32;;;;;;;7.70;2.80;;;25.00;67.90;;;;;;5017608;28;20450;-28
2022/06/12 10:20:09;;;;;;;8.33;3.23;;;25.20;61.10;;;;;;5033917;28;20040;-28
2022/06/12 10:22:38;;;;;;;7.25;2.47;;;25.10;65.50;;;;;;5049334;28;20284;-28
2022/06/12 10:25:07;;;;;;;7.13;2.58;;;25.30;64.40;;;;;;5047312;28;20045;-28
2022/06/12 10:27:52;;;;;;;7.45;2.85;;;24.90;62.40;;;;;;5046964;28;20076;-28
2022/06/12 10:30:36;;;;;;;5.90;2.50;;;24.40;60.40;;;;;;5049657;28;20404;-27
2022/06/12 10:33:24;;;;;;;5.10;2.42;;;24.00;62.50;;;;;;5049261;28;20451;-27
2022/06/12 10:35:58;;;;;;;5.95;2.00;;;23.60;63.80;;;;;;5038219;28;20040;-28
2022/06/12 10:38:31;;;;;;;4.78;2.80;;;23.10;63.80;;;;;;5038542;28;20037;-28
2022/06/12 10:41:01;;;;;;;7.57;3.42;;;22.60;64.80;;;;;;5049101;28;20036;-27
2022/06/12 10:43:37;;;;;;;9.73;2.97;;;22.70;69.40;;;;;;5031663;28;20404;-27
2022/06/12 10:46:33;;;;;;;6.38;2.20;;;23.10;65.70;;;;;;5049897;28;20036;-28
2022/06/12 10:49:02;;;;;;;6.72;1.90;;;23.80;61.80;;;;;;5048126;28;20037;-28
2022/06/12 10:51:38;;;;;;;3.80;2.33;;;24.40;62.50;;;;;;5048657;28;20119;-28
2022/06/12 10:54:21;;;;;;;5.57;2.60;;;24.80;56.60;;;;;;5048329;28;20033;-28
2022/06/12 10:56:56;;;;;;;8.27;2.10;;;25.20;56.20;;;;;;5048243;28;20508;-28
2022/06/12 10:59:36;;;;;;;6.70;2.53;;;24.90;56.00;;;;;;5049493;28;20584;-28
2022/06/12 11:02:13;;;;;;;5.22;2.15;;;24.70;54.40;;;;;;5049724;28;20128;-28
2022/06/12 11:05:17;;;;;;;4.80;2.28;;;24.70;55.50;;;;;;5051121;28;20081;-28
2022/06/12 11:08:01;;;;;;;4.13;2.25;;;24.40;55.10;;;;;;5050655;28;20087;-28
2022/06/12 11:11:03;;;;;;;4.53;2.13;;;24.80;56.80;;;;;;5051384;28;20075;-28
2022/06/12 11:13:44;;;;;;;8.73;3.00;;;25.00;54.00;;;;;;4999134;28;20179;-28
2022/06/12 11:16:32;;;;;;;5.78;3.70;;;24.50;57.40;;;;;;5051282;28;20048;-28
2022/06/12 11:19:33;;;;;;;6.10;3.10;;;24.70;56.10;;;;;;5051632;28;20489;-28
2022/06/12 11:22:27;;;;;;;5.28;2.33;;;24.90;53.70;;;;;;5051528;28;20037;-28
2022/06/12 11:25:03;;;;;;;5.10;2.10;;;24.70;54.70;;;;;;5038130;28;20475;-28
2022/06/12 11:27:32;;;;;;;3.72;1.83;;;24.40;53.60;;;;;;5058881;28;20041;-28
2022/06/12 11:30:21;;;;;;;5.13;2.00;;;24.50;53.50;;;;;;5047460;28;20041;-28
2022/06/12 11:33:09;;;;;;;4.95;1.70;;;24.40;53.50;;;;;;5051462;28;20041;-28
2022/06/12 11:36:02;;;;;;;3.83;1.73;;;24.90;53.20;;;;;;5051069;28;20040;-28
2022/06/12 11:38:34;;;;;;;4.82;1.88;;;25.00;51.00;;;;;;5050826;28;20037;-28
2022/06/12 11:41:23;;;;;;;4.88;1.80;;;25.30;51.50;;;;;;5053367;28;20048;-28
2022/06/12 11:44:11;;;;;;;3.22;1.60;;;25.30;46.30;;;;;;5039944;28;20040;-27
2022/06/12 11:46:56;;;;;;;3.60;1.60;;;25.60;49.80;;;;;;5031089;28;20164;-28
2022/06/12 11:49:49;;;;;;;6.95;2.25;;;25.50;50.30;;;;;;5048396;28;20163;-27
2022/06/12 11:52:26;;;;;;;5.85;1.85;;;25.70;46.90;;;;;;5048956;28;20116;-27
2022/06/12 11:54:58;;;;;;;3.60;1.58;;;25.60;46.90;;;;;;5048276;28;20342;-27
2022/06/12 11:57:37;;;;;;;3.80;1.75;;;25.40;47.80;;;;;;5044918;28;20037;-27
2022/06/12 12:00:12;;;;;;;3.72;1.90;;;26.00;48.70;;;;;;5049016;28;20697;-27
2022/06/12 12:02:43;;;;;;;3.08;1.50;;;26.40;47.80;;;;;;5011574;28;20129;-28
2022/06/12 12:05:37;;;;;;;3.47;1.40;;;26.30;48.00;;;;;;5030173;28;20088;-28
2022/06/12 12:08:14;;;;;;;;;;;26.20;45.60;;;;;;5031549;28;20492;-28
2022/06/12 12:11:00;;;;;;;3.88;1.80;;;26.00;46.80;;;;;;5051255;28;19924;-28
2022/06/12 12:13:49;;;;;;;2.47;1.27;;;26.10;45.10;;;;;;5052304;28;20156;-28
2022/06/12 12:16:34;;;;;;;4.22;1.60;;;26.00;46.90;;;;;;5034761;28;20042;-28
2022/06/12 12:19:06;;;;;;;5.72;1.70;;;26.30;47.80;;;;;;5034734;28;20049;-28
2022/06/12 12:21:38;;;;;;;;;;;26.60;47.20;;;;;;5042606;28;20047;-28
2022/06/12 12:24:13;;;;;;;6.25;1.95;;;26.80;46.90;;;;;;5039314;28;19917;-28
2022/06/12 12:26:42;;;;;;;3.30;1.42;;;26.60;45.80;;;;;;5034484;28;20127;-28
2022/06/12 12:29:20;;;;;;;3.13;1.77;;;26.20;46.40;;;;;;5035050;28;20516;-28
2022/06/12 12:31:47;;;;;;;3.22;1.48;;;26.40;45.30;;;;;;5017184;28;20528;-28
2022/06/12 12:34:15;;;;;;;4.07;1.80;;;26.30;45.90;;;;;;5035148;28;20041;-28
2022/06/12 12:42:23;;;;;;;2.72;1.48;;;26.80;43.90;;;;;;5053640;28;20044;-28
2022/06/12 12:44:50;;;;;;;3.40;1.58;;;26.40;44.60;;;;;;5054192;28;20404;-28
2022/06/12 12:47:17;;;;;;;2.90;1.15;;;26.70;45.20;;;;;;5036517;28;20037;-28
2022/06/12 12:49:43;;;;;;;2.45;1.30;;;26.80;44.40;;;;;;5050678;28;20041;-28
2022/06/12 12:52:11;;;;;;;1.98;1.23;;;27.20;43.80;;;;;;5033898;28;20061;-28
2022/06/12 12:54:50;;;;;;;3.50;1.63;;;26.90;42.20;;;;;;5052712;28;20037;-28
2022/06/12 12:57:33;;;;;;;2.22;1.33;;;26.80;42.60;;;;;;5053205;28;20048;-29
2022/06/12 12:59:59;;;;;;;;;;;26.80;42.40;;;;;;5053674;28;20554;-27
2022/06/12 13:02:45;;;;;;;3.20;1.35;;;26.50;42.00;;;;;;5052413;28;19982;-27
2022/06/12 13:05:21;;;;;;;3.78;1.55;;;27.00;43.50;;;;;;5053060;28;20036;-27
2022/06/12 13:08:09;;;;;;;3.88;1.85;;;27.20;42.60;;;;;;5051773;28;20114;-27
2022/06/12 13:10:39;;;;;;;4.80;1.55;;;27.40;44.00;;;;;;5051278;28;20099;-27
2022/06/12 13:13:08;;;;;;;2.50;1.25;;;27.60;43.30;;;;;;5051577;28;20041;-27
2022/06/12 13:16:08;;;;;;;5.88;2.00;;;27.30;42.20;;;;;;5035228;28;20049;-27
2022/06/12 13:18:46;;;;;;;4.35;1.52;;;27.30;43.70;;;;;;5034672;28;20045;-28
2022/06/12 13:21:21;;;;;;;2.20;1.60;;;27.60;42.80;;;;;;5052446;28;20091;-27
2022/06/12 13:24:04;;;;;;;2.33;1.40;;;28.00;43.10;;;;;;5051193;28;20033;-27
2022/06/12 13:26:33;;;;;;;4.25;1.48;;;28.30;44.00;;;;;;5052303;28;20040;-28
2022/06/12 13:29:02;;;;;;;4.32;1.35;;;28.20;42.50;;;;;;5035130;28;20045;-27
2022/06/12 13:31:33;;;;;;;4.00;1.42;;;28.20;43.70;;;;;;5052713;28;20094;-27
2022/06/12 13:34:00;;;;;;;3.35;1.48;;;27.80;41.50;;;;;;5053811;28;20037;-27
2022/06/12 13:36:42;;;;;;;3.15;1.35;;;28.50;43.00;;;;;;5053539;28;20036;-27
2022/06/12 13:39:29;;;;;;;3.70;1.63;;;29.00;43.20;;;;;;5053810;28;20051;-28